createdAt,value
2022-08-31T00:00:32.075Z,13.80
2022-08-31T00:03:18.203Z,13.80
2022-08-31T00:05:46.749Z,13.70
2022-08-31T00:08:14.965Z,13.70
2022-08-31T00:10:46.269Z,13.70
2022-08-31T00:13:14.813Z,13.70
2022-08-31T00:15:44.845Z,13.60
2022-08-31T00:18:12.991Z,13.60
2022-08-31T00:20:41.422Z,13.60
2022-08-31T00:23:11.727Z,13.60
2022-08-31T00:25:41.688Z,13.50
2022-08-31T00:28:10.582Z,13.50
2022-08-31T00:30:38.758Z,13.50
2022-08-31T00:33:09.197Z,13.50
2022-08-31T00:35:39.257Z,13.50
2022-08-31T00:38:07.590Z,13.50
2022-08-31T00:40:38.163Z,13.40
2022-08-31T00:43:14.186Z,13.40
2022-08-31T00:45:42.338Z,13.40
2022-08-31T00:48:11.872Z,13.40
2022-08-31T00:50:47.987Z,13.40
2022-08-31T00:53:16.357Z,13.30
2022-08-31T00:55:44.551Z,13.30
2022-08-31T00:58:14.134Z,13.30
2022-08-31T01:00:44.456Z,13.30
2022-08-31T01:03:12.973Z,13.30
2022-08-31T01:05:41.401Z,13.20
2022-08-31T01:08:11.148Z,13.20
2022-08-31T01:10:43.718Z,13.20
2022-08-31T01:13:13.036Z,13.20
2022-08-31T01:15:50.420Z,13.10
2022-08-31T01:18:24.437Z,13.10
2022-08-31T01:21:02.299Z,13.10
2022-08-31T01:23:34.473Z,13.10
2022-08-31T01:26:04.449Z,13.00
2022-08-31T01:28:32.626Z,13.00
2022-08-31T01:31:05.303Z,13.00
2022-08-31T01:33:36.560Z,13.00
2022-08-31T01:36:05.998Z,13.00
2022-08-31T01:38:36.415Z,12.90
2022-08-31T01:41:05.399Z,12.90
2022-08-31T01:43:34.880Z,12.90
2022-08-31T01:46:03.533Z,12.90
2022-08-31T01:48:33.511Z,12.90
2022-08-31T01:51:03.746Z,12.80
2022-08-31T01:53:32.882Z,12.80
2022-08-31T01:56:02.581Z,12.80
2022-08-31T01:58:30.805Z,12.80
2022-08-31T02:01:34.659Z,12.80
2022-08-31T02:04:04.277Z,12.80
2022-08-31T02:06:33.378Z,12.70
2022-08-31T02:09:01.491Z,12.70
2022-08-31T02:11:31.102Z,12.70
2022-08-31T02:13:59.212Z,12.70
2022-08-31T02:16:27.559Z,12.60
2022-08-31T02:18:55.963Z,12.60
2022-08-31T02:21:24.557Z,12.60
2022-08-31T02:23:52.722Z,12.60
2022-08-31T02:26:22.196Z,12.60
2022-08-31T02:28:51.697Z,12.50
2022-08-31T02:31:19.977Z,12.50
2022-08-31T02:33:54.738Z,12.50
2022-08-31T02:36:24.333Z,12.50
2022-08-31T02:38:53.010Z,12.50
2022-08-31T02:41:21.507Z,12.50
2022-08-31T02:43:51.374Z,12.50
2022-08-31T02:46:20.775Z,12.40
2022-08-31T02:48:59.047Z,12.40
2022-08-31T02:51:27.103Z,12.40
2022-08-31T02:53:55.194Z,12.30
2022-08-31T02:56:23.853Z,12.30
2022-08-31T02:58:55.133Z,12.30
2022-08-31T03:01:27.090Z,12.20
2022-08-31T03:03:56.476Z,12.20
2022-08-31T03:06:26.272Z,12.20
2022-08-31T03:08:55.911Z,12.10
2022-08-31T03:11:25.451Z,12.10
2022-08-31T03:13:58.887Z,12.10
2022-08-31T03:16:29.183Z,12.10
2022-08-31T03:18:59.181Z,12.00
2022-08-31T03:21:29.023Z,12.00
2022-08-31T03:23:58.879Z,12.00
2022-08-31T03:26:29.179Z,12.00
2022-08-31T03:28:59.119Z,12.00
2022-08-31T03:32:05.390Z,12.00
2022-08-31T03:34:35.408Z,12.00
2022-08-31T03:37:03.839Z,11.90
2022-08-31T03:39:32.026Z,11.90
2022-08-31T03:42:00.197Z,11.80
2022-08-31T03:44:29.669Z,11.80
2022-08-31T03:46:57.818Z,11.80
2022-08-31T03:49:27.673Z,11.80
2022-08-31T03:52:09.041Z,11.80
2022-08-31T03:54:45.046Z,11.70
2022-08-31T03:57:13.797Z,11.60
2022-08-31T03:59:43.210Z,11.60
2022-08-31T04:02:19.962Z,11.60
2022-08-31T04:05:08.952Z,11.60
2022-08-31T04:07:56.182Z,11.50
2022-08-31T04:10:44.947Z,11.40
2022-08-31T04:13:33.293Z,11.40
2022-08-31T04:16:22.852Z,11.30
2022-08-31T04:19:00.101Z,11.30
2022-08-31T04:21:31.774Z,11.30
2022-08-31T04:24:01.961Z,11.30
2022-08-31T04:26:33.888Z,11.30
2022-08-31T04:29:03.026Z,11.30
2022-08-31T04:31:32.689Z,11.30
2022-08-31T04:34:00.817Z,11.30
2022-08-31T04:36:30.735Z,11.30
2022-08-31T04:39:03.055Z,11.30
2022-08-31T04:41:33.416Z,11.30
2022-08-31T04:44:02.651Z,11.30
2022-08-31T04:46:33.485Z,11.30
2022-08-31T04:49:01.498Z,11.30
2022-08-31T04:51:31.613Z,11.30
2022-08-31T04:54:00.181Z,11.30
2022-08-31T04:56:31.185Z,11.30
2022-08-31T04:59:01.233Z,11.40
2022-08-31T05:01:35.999Z,11.40
2022-08-31T05:04:36.565Z,11.40
2022-08-31T05:07:05.173Z,11.50
2022-08-31T05:09:34.185Z,11.50
2022-08-31T05:12:02.618Z,11.50
2022-08-31T05:14:30.819Z,11.60
2022-08-31T05:17:06.267Z,11.70
2022-08-31T05:19:41.865Z,11.80
2022-08-31T05:22:09.975Z,11.90
2022-08-31T05:24:40.126Z,12.00
2022-08-31T05:27:09.736Z,12.10
2022-08-31T05:29:37.846Z,12.20
2022-08-31T05:32:25.890Z,12.30
2022-08-31T05:34:56.598Z,12.40
2022-08-31T05:37:24.704Z,12.50
2022-08-31T05:39:52.950Z,12.70
2022-08-31T05:42:21.085Z,12.80
2022-08-31T05:44:49.525Z,12.80
2022-08-31T05:47:18.314Z,13.00
2022-08-31T05:49:47.980Z,13.10
2022-08-31T05:52:19.962Z,13.20
2022-08-31T05:54:53.624Z,13.30
2022-08-31T05:57:26.302Z,13.50
2022-08-31T05:59:54.846Z,13.70
2022-08-31T06:02:23.026Z,13.80
2022-08-31T06:04:58.491Z,14.00
2022-08-31T06:07:27.162Z,14.10
2022-08-31T06:09:59.297Z,14.30
2022-08-31T06:12:28.370Z,14.40
2022-08-31T06:14:56.443Z,14.60
2022-08-31T06:17:24.902Z,14.80
2022-08-31T06:19:53.161Z,15.00
2022-08-31T06:22:23.433Z,15.20
2022-08-31T06:24:52.643Z,15.40
2022-08-31T06:27:20.871Z,15.50
2022-08-31T06:29:50.901Z,15.80
2022-08-31T06:32:19.949Z,16.00
2022-08-31T06:34:57.659Z,16.10
2022-08-31T06:37:45.544Z,16.40
2022-08-31T06:40:32.204Z,16.50
2022-08-31T06:43:19.393Z,16.90
2022-08-31T06:45:58.655Z,17.10
2022-08-31T06:48:48.159Z,17.40
2022-08-31T06:51:16.249Z,17.40
2022-08-31T06:53:45.793Z,17.60
2022-08-31T06:56:40.295Z,17.80
2022-08-31T06:59:44.199Z,17.90
2022-08-31T07:02:19.894Z,18.00
2022-08-31T07:04:48.160Z,18.20
2022-08-31T07:07:16.249Z,18.40
2022-08-31T07:09:46.342Z,18.60
2022-08-31T07:12:14.417Z,18.80
2022-08-31T07:14:42.563Z,19.10
2022-08-31T07:17:21.018Z,19.20
2022-08-31T07:19:49.285Z,19.40
2022-08-31T07:22:18.669Z,19.70
2022-08-31T07:24:51.985Z,19.90
2022-08-31T07:27:20.271Z,20.20
2022-08-31T07:29:55.491Z,20.30
2022-08-31T07:32:24.908Z,20.40
2022-08-31T07:34:58.641Z,20.50
2022-08-31T07:37:45.562Z,20.80
2022-08-31T07:40:33.106Z,20.90
2022-08-31T07:43:04.448Z,20.80
2022-08-31T07:45:37.800Z,21.00
2022-08-31T07:48:08.564Z,21.20
2022-08-31T07:50:59.506Z,21.40
2022-08-31T07:53:45.132Z,21.40
2022-08-31T07:56:37.177Z,21.40
2022-08-31T07:59:16.777Z,21.40
2022-08-31T08:01:46.952Z,21.50
2022-08-31T08:04:25.260Z,21.60
2022-08-31T08:07:17.412Z,21.70
2022-08-31T08:10:05.272Z,21.30
2022-08-31T08:13:06.935Z,21.40
2022-08-31T08:15:50.834Z,21.60
2022-08-31T08:18:27.234Z,21.60
2022-08-31T08:20:59.394Z,21.70
2022-08-31T08:23:28.866Z,21.60
2022-08-31T08:26:25.145Z,22.00
2022-08-31T08:29:06.294Z,22.30
2022-08-31T08:31:37.871Z,22.50
2022-08-31T08:34:06.860Z,22.30
2022-08-31T08:36:37.371Z,22.40
2022-08-31T08:39:08.699Z,22.50
2022-08-31T08:41:42.725Z,22.20
2022-08-31T08:44:17.868Z,22.40
2022-08-31T08:46:52.057Z,22.50
2022-08-31T08:49:25.968Z,22.60
2022-08-31T08:52:03.128Z,22.50
2022-08-31T08:54:35.394Z,22.50
2022-08-31T08:57:12.816Z,22.50
2022-08-31T08:59:44.317Z,22.80
2022-08-31T09:02:16.134Z,22.60
2022-08-31T09:04:59.706Z,22.70
2022-08-31T09:08:18.460Z,22.80
2022-08-31T09:10:59.755Z,22.50
2022-08-31T09:13:48.990Z,22.40
2022-08-31T09:16:28.758Z,22.80
2022-08-31T09:19:03.274Z,22.70
2022-08-31T09:21:34.319Z,22.60
2022-08-31T09:24:05.418Z,22.00
2022-08-31T09:27:17.980Z,21.70
2022-08-31T09:29:48.294Z,21.80
2022-08-31T09:32:23.142Z,22.10
2022-08-31T09:34:58.993Z,22.50
2022-08-31T09:37:33.171Z,23.30
2022-08-31T09:40:23.205Z,23.70
2022-08-31T09:43:05.033Z,23.30
2022-08-31T09:45:40.060Z,22.70
2022-08-31T09:48:11.787Z,22.40
2022-08-31T09:50:44.984Z,22.40
2022-08-31T09:53:35.134Z,22.40
2022-08-31T09:56:22.141Z,21.90
2022-08-31T09:58:52.442Z,22.00
2022-08-31T10:01:25.720Z,22.40
2022-08-31T10:04:12.194Z,22.90
2022-08-31T10:06:49.729Z,23.00
2022-08-31T10:09:28.458Z,23.20
2022-08-31T10:11:59.765Z,23.60
2022-08-31T10:14:36.716Z,24.40
2022-08-31T10:17:10.698Z,24.40
2022-08-31T10:19:53.281Z,25.00
2022-08-31T10:22:31.194Z,25.60
2022-08-31T10:25:12.092Z,25.80
2022-08-31T10:27:45.477Z,25.60
2022-08-31T10:30:22.591Z,24.70
2022-08-31T10:32:56.799Z,23.90
2022-08-31T10:35:37.275Z,23.60
2022-08-31T10:38:19.913Z,23.30
2022-08-31T10:40:52.683Z,23.50
2022-08-31T10:43:24.066Z,24.10
2022-08-31T10:45:54.557Z,24.40
2022-08-31T10:48:25.057Z,23.90
2022-08-31T10:51:05.662Z,23.40
2022-08-31T10:53:45.001Z,23.10
2022-08-31T10:56:17.323Z,23.50
2022-08-31T10:59:04.542Z,24.00
2022-08-31T11:01:43.011Z,24.80
2022-08-31T11:04:38.119Z,25.20
2022-08-31T11:07:16.082Z,25.30
2022-08-31T11:09:54.913Z,24.80
2022-08-31T11:12:27.980Z,24.80
2022-08-31T11:15:14.449Z,24.60
2022-08-31T11:17:59.746Z,24.10
2022-08-31T11:20:42.913Z,24.50
2022-08-31T11:23:35.838Z,25.00
2022-08-31T11:26:45.266Z,25.30
2022-08-31T11:29:32.091Z,25.20
2022-08-31T11:32:11.058Z,25.30
2022-08-31T11:34:47.315Z,25.50
2022-08-31T11:37:52.475Z,25.90
2022-08-31T11:43:51.965Z,25.90
2022-08-31T11:46:43.168Z,26.30
2022-08-31T11:49:36.808Z,26.30
2022-08-31T11:52:12.059Z,25.90
2022-08-31T11:55:04.257Z,25.70
2022-08-31T11:57:57.103Z,25.80
2022-08-31T12:00:43.980Z,25.70
2022-08-31T12:03:34.158Z,25.60
2022-08-31T12:06:02.430Z,25.00
2022-08-31T12:08:35.224Z,24.80
2022-08-31T12:11:12.607Z,25.00
2022-08-31T12:13:49.522Z,25.00
2022-08-31T12:16:43.354Z,24.50
2022-08-31T12:19:42.993Z,24.50
2022-08-31T12:22:46.121Z,24.70
2022-08-31T12:25:25.123Z,24.10
2022-08-31T12:28:05.437Z,24.50
2022-08-31T12:30:33.673Z,24.50
2022-08-31T12:33:09.206Z,24.30
2022-08-31T12:35:38.918Z,24.30
2022-08-31T12:38:08.526Z,24.20
2022-08-31T12:40:42.545Z,24.20
2022-08-31T12:43:17.295Z,23.80
2022-08-31T12:46:10.280Z,23.80
2022-08-31T12:49:02.149Z,24.10
2022-08-31T12:51:41.514Z,24.40
2022-08-31T12:54:40.139Z,24.40
2022-08-31T12:57:15.753Z,24.40
2022-08-31T13:00:01.542Z,24.40
2022-08-31T13:02:31.846Z,24.30
2022-08-31T13:05:02.493Z,23.90
2022-08-31T13:07:33.246Z,23.70
2022-08-31T13:10:07.705Z,23.80
2022-08-31T13:12:36.172Z,24.00
2022-08-31T13:15:05.377Z,23.90
2022-08-31T13:17:40.014Z,24.10
2022-08-31T13:20:12.407Z,24.30
2022-08-31T13:22:41.165Z,24.40
2022-08-31T13:25:16.690Z,24.40
2022-08-31T13:27:50.394Z,24.50
2022-08-31T13:30:25.485Z,24.40
2022-08-31T13:32:54.833Z,24.40
2022-08-31T13:35:36.988Z,24.20
2022-08-31T13:38:07.781Z,24.20
2022-08-31T13:40:39.365Z,24.20
2022-08-31T13:43:10.131Z,24.10
2022-08-31T13:45:43.123Z,23.90
2022-08-31T13:48:16.091Z,23.80
2022-08-31T13:50:52.619Z,24.00
2022-08-31T13:53:39.719Z,23.90
2022-08-31T13:56:52.549Z,23.90
2022-08-31T13:59:34.022Z,24.00
2022-08-31T14:02:05.632Z,23.80
2022-08-31T14:05:00.286Z,23.90
2022-08-31T14:07:33.416Z,23.90
2022-08-31T14:10:03.757Z,24.00
2022-08-31T14:12:37.399Z,23.80
2022-08-31T14:15:18.603Z,24.00
2022-08-31T14:21:09.989Z,23.90
2022-08-31T14:23:35.982Z,23.90
2022-08-31T14:26:07.410Z,23.90
2022-08-31T14:28:40.599Z,23.80
2022-08-31T14:31:29.950Z,23.60
2022-08-31T14:34:09.005Z,23.50
2022-08-31T14:36:44.707Z,23.50
2022-08-31T14:39:14.562Z,23.40
2022-08-31T14:41:43.861Z,23.30
2022-08-31T14:44:13.494Z,23.20
2022-08-31T14:46:43.386Z,23.00
2022-08-31T14:49:11.439Z,22.90
2022-08-31T14:51:40.190Z,22.70
2022-08-31T14:54:09.031Z,22.80
2022-08-31T14:56:46.852Z,22.80
2022-08-31T14:59:17.558Z,22.80
2022-08-31T15:01:46.360Z,22.80
2022-08-31T15:04:16.061Z,22.70
2022-08-31T15:06:44.506Z,22.70
2022-08-31T15:09:14.060Z,22.60
2022-08-31T15:11:44.183Z,22.50
2022-08-31T15:14:13.939Z,22.50
2022-08-31T15:16:44.043Z,22.50
2022-08-31T15:19:14.098Z,22.30
2022-08-31T15:21:51.780Z,22.00
2022-08-31T15:24:21.962Z,22.10
2022-08-31T15:26:53.413Z,22.30
2022-08-31T15:29:24.695Z,22.40
2022-08-31T15:31:55.038Z,22.40
2022-08-31T15:34:25.593Z,22.40
2022-08-31T15:36:56.782Z,22.40
2022-08-31T15:39:27.113Z,22.40
2022-08-31T15:41:57.499Z,22.40
2022-08-31T15:44:26.073Z,22.50
2022-08-31T15:47:11.617Z,22.50
2022-08-31T15:49:43.577Z,22.50
2022-08-31T15:52:12.078Z,22.60
2022-08-31T15:54:40.969Z,22.70
2022-08-31T15:57:11.246Z,22.60
2022-08-31T15:59:42.924Z,22.60
2022-08-31T16:02:13.054Z,22.60
2022-08-31T16:04:43.285Z,22.60
2022-08-31T16:07:13.637Z,22.50
2022-08-31T16:09:44.455Z,22.50
2022-08-31T16:12:14.098Z,22.40
2022-08-31T16:14:44.643Z,22.30
2022-08-31T16:17:15.129Z,22.10
2022-08-31T16:19:43.206Z,22.00
2022-08-31T16:22:11.327Z,21.90
2022-08-31T16:24:39.728Z,21.80
2022-08-31T16:27:11.367Z,21.70
2022-08-31T16:29:41.469Z,21.70
2022-08-31T16:32:09.663Z,21.60
2022-08-31T16:34:39.195Z,21.60
2022-08-31T16:37:08.434Z,21.50
2022-08-31T16:39:37.661Z,21.40
2022-08-31T16:42:06.723Z,21.40
2022-08-31T16:44:36.846Z,21.30
2022-08-31T16:47:07.681Z,21.30
2022-08-31T16:49:36.515Z,21.20
2022-08-31T16:52:07.558Z,21.20
2022-08-31T16:54:41.161Z,21.10
2022-08-31T16:57:09.381Z,21.00
2022-08-31T16:59:37.529Z,21.00
2022-08-31T17:02:07.061Z,20.90
2022-08-31T17:04:51.416Z,20.90
2022-08-31T17:07:21.529Z,20.90
2022-08-31T17:09:49.606Z,20.80
2022-08-31T17:12:21.425Z,20.80
2022-08-31T17:14:52.383Z,20.70
2022-08-31T17:17:23.858Z,20.70
2022-08-31T17:19:54.013Z,20.60
2022-08-31T17:22:31.842Z,20.60
2022-08-31T17:25:02.650Z,20.60
2022-08-31T17:27:32.197Z,20.50
2022-08-31T17:30:01.313Z,20.50
2022-08-31T17:32:30.922Z,20.40
2022-08-31T17:34:59.286Z,20.40
2022-08-31T17:37:32.474Z,20.30
2022-08-31T17:40:01.468Z,20.20
2022-08-31T17:42:29.575Z,20.10
2022-08-31T17:44:58.922Z,20.10
2022-08-31T17:47:27.333Z,20.00
2022-08-31T17:49:56.750Z,20.00
2022-08-31T17:52:24.786Z,20.00
2022-08-31T17:54:52.958Z,19.90
2022-08-31T17:57:24.937Z,19.80
2022-08-31T17:59:54.807Z,19.80
2022-08-31T18:02:27.516Z,19.80
2022-08-31T18:04:56.993Z,19.80
2022-08-31T18:07:25.144Z,19.70
2022-08-31T18:09:53.763Z,19.70
2022-08-31T18:12:22.791Z,19.70
2022-08-31T18:14:51.012Z,19.60
2022-08-31T18:17:21.523Z,19.60
2022-08-31T18:19:49.767Z,19.50
2022-08-31T18:22:19.780Z,19.40
2022-08-31T18:24:47.913Z,19.40
2022-08-31T18:27:16.206Z,19.30
2022-08-31T18:29:45.317Z,19.30
2022-08-31T18:32:14.010Z,19.30
2022-08-31T18:34:46.962Z,19.30
2022-08-31T18:37:16.378Z,19.30
2022-08-31T18:40:07.699Z,19.30
2022-08-31T18:42:56.950Z,19.10
2022-08-31T18:45:25.854Z,19.10
2022-08-31T18:50:45.957Z,19.00
2022-08-31T18:53:27.789Z,19.00
2022-08-31T18:56:06.294Z,18.90
2022-08-31T18:58:35.578Z,18.80
2022-08-31T19:01:03.981Z,18.70
2022-08-31T19:03:32.138Z,18.70
2022-08-31T19:06:00.154Z,18.70
2022-08-31T19:08:29.248Z,18.60
2022-08-31T19:10:58.061Z,18.60
2022-08-31T19:13:31.565Z,18.60
2022-08-31T19:16:05.612Z,18.60
2022-08-31T19:18:39.415Z,18.60
2022-08-31T19:21:17.019Z,18.50
2022-08-31T19:23:45.506Z,18.50
2022-08-31T19:26:20.083Z,18.50
2022-08-31T19:28:50.143Z,18.50
2022-08-31T19:31:20.966Z,18.40
2022-08-31T19:33:56.090Z,18.40
2022-08-31T19:36:24.566Z,18.30
2022-08-31T19:38:54.102Z,18.30
2022-08-31T19:41:24.592Z,18.30
2022-08-31T19:44:05.698Z,18.30
2022-08-31T19:46:37.373Z,18.30
2022-08-31T19:49:09.530Z,18.20
2022-08-31T19:51:40.202Z,18.20
2022-08-31T19:54:11.505Z,18.10
2022-08-31T19:56:41.261Z,18.00
2022-08-31T19:59:11.887Z,18.00
2022-08-31T20:01:40.532Z,18.00
2022-08-31T20:04:14.407Z,18.00
2022-08-31T20:06:45.377Z,17.90
2022-08-31T20:09:14.122Z,17.90
2022-08-31T20:11:42.509Z,17.90
2022-08-31T20:14:13.203Z,17.90
2022-08-31T20:16:43.099Z,17.90
2022-08-31T20:19:13.967Z,17.80
2022-08-31T20:21:42.604Z,17.80
2022-08-31T20:24:13.982Z,17.70
2022-08-31T20:26:51.533Z,17.80
2022-08-31T20:29:22.351Z,17.70
2022-08-31T20:31:52.294Z,17.60
2022-08-31T20:34:22.881Z,17.60
2022-08-31T20:36:58.496Z,17.50
2022-08-31T20:39:30.647Z,17.50
2022-08-31T20:42:00.408Z,17.50
2022-08-31T20:44:33.567Z,17.50
2022-08-31T20:47:21.448Z,17.50
2022-08-31T20:49:54.570Z,17.40
2022-08-31T20:52:24.228Z,17.30
2022-08-31T20:55:01.464Z,17.30
2022-08-31T20:57:31.750Z,17.30
2022-08-31T21:00:02.996Z,17.20
2022-08-31T21:02:33.268Z,17.20
2022-08-31T21:05:20.714Z,17.20
2022-08-31T21:07:50.303Z,17.10
2022-08-31T21:10:36.617Z,17.10
2022-08-31T21:13:07.803Z,17.10
2022-08-31T21:15:42.062Z,17.10
2022-08-31T21:18:10.387Z,17.00
2022-08-31T21:20:38.870Z,17.00
2022-08-31T21:23:09.743Z,16.90
2022-08-31T21:25:43.650Z,16.90
2022-08-31T21:28:13.589Z,16.90
2022-08-31T21:30:43.915Z,16.80
2022-08-31T21:33:12.017Z,16.80
2022-08-31T21:35:40.071Z,16.80
2022-08-31T21:38:08.939Z,16.70
2022-08-31T21:40:37.094Z,16.70
2022-08-31T21:43:05.309Z,16.70
2022-08-31T21:45:33.349Z,16.60
2022-08-31T21:48:02.856Z,16.60
2022-08-31T21:50:30.900Z,16.50
2022-08-31T21:53:00.581Z,16.50
2022-08-31T21:55:28.855Z,16.50
2022-08-31T21:57:56.907Z,16.40
2022-08-31T22:00:29.475Z,16.40
2022-08-31T22:02:58.423Z,16.40
2022-08-31T22:05:32.875Z,16.30
2022-08-31T22:08:01.596Z,16.30
2022-08-31T22:10:30.865Z,16.30
2022-08-31T22:12:58.911Z,16.20
2022-08-31T22:15:28.246Z,16.20
2022-08-31T22:18:18.342Z,16.20
2022-08-31T22:20:48.726Z,16.10
2022-08-31T22:23:16.733Z,16.10
2022-08-31T22:25:45.010Z,16.10
2022-08-31T22:28:14.613Z,16.00
2022-08-31T22:30:44.201Z,16.00
2022-08-31T22:33:12.523Z,15.90
2022-08-31T22:35:40.588Z,15.90
2022-08-31T22:38:14.632Z,15.90
2022-08-31T22:40:43.155Z,15.90
2022-08-31T22:43:11.274Z,15.80
2022-08-31T22:45:48.213Z,15.80
2022-08-31T22:48:17.067Z,15.80
2022-08-31T22:50:45.229Z,15.80
2022-08-31T22:53:14.834Z,15.70
2022-08-31T22:55:44.171Z,15.70
2022-08-31T22:58:13.695Z,15.60
2022-08-31T23:00:42.091Z,15.60
2022-08-31T23:03:15.123Z,15.60
2022-08-31T23:05:43.669Z,15.50
2022-08-31T23:08:12.077Z,15.50
2022-08-31T23:10:42.114Z,15.40
2022-08-31T23:13:10.194Z,15.40
2022-08-31T23:15:38.361Z,15.40
2022-08-31T23:18:10.561Z,15.30
2022-08-31T23:20:41.674Z,15.30
2022-08-31T23:23:10.090Z,15.30
2022-08-31T23:25:41.905Z,15.30
2022-08-31T23:28:10.016Z,15.20
2022-08-31T23:30:40.130Z,15.20
2022-08-31T23:33:08.229Z,15.10
2022-08-31T23:35:36.318Z,15.10
2022-08-31T23:38:04.394Z,15.10
2022-08-31T23:40:34.043Z,15.00
2022-08-31T23:43:05.549Z,15.00
2022-08-31T23:45:33.618Z,15.00
2022-08-31T23:48:01.645Z,14.90
2022-08-31T23:50:29.694Z,14.90
2022-08-31T23:52:57.770Z,14.90
2022-08-31T23:55:31.063Z,14.90
2022-08-31T23:57:59.285Z,14.80
